Time;durP1;ratioP1;P1;durP2;ratioP2;P2;SDS_P1;SDS_P2;PMS_P1;PMS_P2;Temp;Humidity;BMP_temperature;BMP_pressure;BME280_temperature;BME280_humidity;BME280_pressure;Samples;Min_cycle;Max_cycle;Signal;HPM_P1;HPM_P2
2023/04/22 00:00:57;;;;;;;10.17;6.03;;;14.00;99.90;;;;;;5031329;28;20628;-74
2023/04/22 00:03:23;;;;;;;6.13;5.30;;;13.90;99.90;;;;;;5032851;28;20267;-75
2023/04/22 00:05:49;;;;;;;6.90;5.20;;;13.80;99.90;;;;;;5037437;28;20212;-74
2023/04/22 00:08:14;;;;;;;9.95;5.80;;;13.80;99.90;;;;;;5033202;28;20639;-75
2023/04/22 00:10:40;;;;;;;8.47;5.60;;;13.80;99.90;;;;;;5039109;28;20239;-74
2023/04/22 00:13:05;;;;;;;7.97;5.77;;;13.80;99.90;;;;;;5057991;28;20214;-75
2023/04/22 00:15:31;;;;;;;5.93;5.03;;;13.90;99.90;;;;;;5047204;28;20260;-75
2023/04/22 00:17:57;;;;;;;8.87;5.97;;;13.90;99.90;;;;;;5043757;28;20597;-76
2023/04/22 00:20:24;;;;;;;9.32;5.90;;;13.90;99.90;;;;;;5039460;28;20200;-75
2023/04/22 00:22:50;;;;;;;9.97;5.53;;;13.80;99.90;;;;;;5042764;28;20311;-74
2023/04/22 00:25:16;;;;;;;9.83;5.40;;;13.80;99.90;;;;;;5038188;28;20287;-75
2023/04/22 00:27:41;;;;;;;9.07;5.87;;;13.80;99.90;;;;;;5041091;28;20628;-75
2023/04/22 00:30:08;;;;;;;8.47;6.37;;;13.80;99.90;;;;;;5039146;28;20231;-75
2023/04/22 00:32:34;;;;;;;6.80;5.60;;;13.70;99.90;;;;;;5053013;28;20196;-75
2023/04/22 00:35:00;;;;;;;7.10;5.67;;;13.70;99.90;;;;;;5036482;28;20208;-75
2023/04/22 00:37:25;;;;;;;7.37;5.57;;;13.60;99.90;;;;;;5041359;28;20584;-72
2023/04/22 00:39:51;;;;;;;11.47;6.07;;;13.60;99.90;;;;;;5043910;28;20180;-75
2023/04/22 00:42:17;;;;;;;10.20;5.83;;;13.60;99.90;;;;;;5050248;28;20177;-75
2023/04/22 00:44:45;;;;;;;8.73;5.23;;;13.60;99.90;;;;;;5041713;28;20365;-74
2023/04/22 00:47:11;;;;;;;7.80;5.50;;;13.50;99.90;;;;;;5035501;28;20588;-74
2023/04/22 00:49:37;;;;;;;7.40;5.63;;;13.40;99.90;;;;;;5034098;28;20585;-74
2023/04/22 00:52:03;;;;;;;7.83;5.73;;;13.50;99.90;;;;;;5038481;28;20202;-74
2023/04/22 00:54:29;;;;;;;8.30;5.47;;;13.40;99.90;;;;;;5040828;28;20686;-74
2023/04/22 00:56:57;;;;;;;10.47;5.93;;;13.30;99.90;;;;;;5042743;28;20214;-75
2023/04/22 00:59:24;;;;;;;9.40;6.20;;;13.30;99.90;;;;;;5038614;28;20203;-74
2023/04/22 01:01:50;;;;;;;9.70;5.83;;;13.30;99.90;;;;;;5041081;28;20581;-75
2023/04/22 01:04:16;;;;;;;10.67;5.93;;;13.30;99.90;;;;;;5046220;28;20210;-76
2023/04/22 01:06:43;;;;;;;9.50;5.83;;;13.30;99.90;;;;;;5041491;28;20610;-75
2023/04/22 01:09:08;;;;;;;9.20;5.93;;;13.20;99.90;;;;;;5036229;28;20294;-74
2023/04/22 01:11:35;;;;;;;10.53;5.83;;;13.30;99.90;;;;;;5037167;28;20228;-75
2023/04/22 01:14:02;;;;;;;10.27;5.80;;;13.20;99.90;;;;;;5036391;28;20694;-75
2023/04/22 01:16:29;;;;;;;6.80;5.57;;;13.20;99.90;;;;;;5041291;28;20238;-77
2023/04/22 01:18:55;;;;;;;9.13;5.53;;;13.30;99.90;;;;;;5034568;28;20582;-76
2023/04/22 01:21:23;;;;;;;8.53;5.90;;;13.20;99.90;;;;;;5034420;28;20173;-74
2023/04/22 01:23:49;;;;;;;8.80;5.30;;;13.20;99.90;;;;;;5034549;28;20211;-76
2023/04/22 01:26:15;;;;;;;8.07;6.07;;;13.20;99.90;;;;;;5033001;28;20335;-75
2023/04/22 01:28:41;;;;;;;6.03;5.03;;;13.30;99.90;;;;;;5039171;28;20204;-76
2023/04/22 01:31:08;;;;;;;8.90;5.60;;;13.20;99.90;;;;;;5031797;28;20168;-75
2023/04/22 01:33:33;;;;;;;8.30;6.03;;;13.20;99.90;;;;;;5037070;28;20702;-76
2023/04/22 01:35:59;;;;;;;9.53;5.80;;;13.10;99.90;;;;;;5046576;28;20249;-74
2023/04/22 01:38:25;;;;;;;8.33;5.70;;;13.10;99.90;;;;;;5041076;28;20606;-74
2023/04/22 01:40:51;;;;;;;8.63;5.37;;;13.00;99.90;;;;;;5041911;28;20199;-75
2023/04/22 01:43:16;;;;;;;7.83;5.37;;;13.10;99.90;;;;;;5037413;28;20362;-75
2023/04/22 01:45:42;;;;;;;7.87;5.63;;;13.00;99.90;;;;;;5043856;28;20207;-75
2023/04/22 01:48:08;;;;;;;8.90;6.00;;;13.00;99.90;;;;;;5051679;28;20742;-75
2023/04/22 01:50:34;;;;;;;9.60;5.83;;;13.00;99.90;;;;;;5036841;28;20279;-75
2023/04/22 01:53:00;;;;;;;9.60;6.00;;;13.00;99.90;;;;;;5036242;28;20219;-76
2023/04/22 01:55:25;;;;;;;7.10;5.57;;;13.00;99.90;;;;;;5046031;28;20206;-75
2023/04/22 01:57:51;;;;;;;10.63;5.80;;;12.90;99.90;;;;;;5044083;28;20219;-76
2023/04/22 02:00:17;;;;;;;8.87;5.90;;;12.90;99.90;;;;;;5034080;28;20200;-75
2023/04/22 02:02:43;;;;;;;10.60;5.57;;;12.90;99.90;;;;;;5034147;28;20212;-75
2023/04/22 02:05:09;;;;;;;10.97;6.17;;;12.80;99.90;;;;;;5032612;28;20718;-75
2023/04/22 02:07:35;;;;;;;8.13;5.63;;;12.90;99.90;;;;;;5032032;28;20217;-75
2023/04/22 02:10:03;;;;;;;8.07;5.83;;;12.80;99.90;;;;;;5047204;28;20177;-75
2023/04/22 02:12:30;;;;;;;8.53;5.83;;;12.70;99.90;;;;;;5031359;28;20176;-75
2023/04/22 02:14:55;;;;;;;7.33;5.73;;;12.70;99.90;;;;;;5040598;28;20215;-74
2023/04/22 02:17:21;;;;;;;9.37;5.40;;;12.60;99.90;;;;;;5029480;28;20574;-74
2023/04/22 02:19:46;;;;;;;9.70;5.90;;;12.70;99.90;;;;;;5037331;28;20246;-75
2023/04/22 02:22:12;;;;;;;8.83;6.50;;;12.70;99.90;;;;;;5037432;28;20770;-75
2023/04/22 02:24:38;;;;;;;10.10;6.23;;;12.70;99.90;;;;;;5038644;28;20186;-75
2023/04/22 02:27:03;;;;;;;9.20;6.20;;;12.80;99.90;;;;;;5037263;28;20196;-75
2023/04/22 02:29:30;;;;;;;10.33;6.30;;;12.80;99.90;;;;;;5045194;28;20208;-75
2023/04/22 02:31:57;;;;;;;8.90;6.07;;;12.70;99.90;;;;;;5047168;28;20778;-75
2023/04/22 02:34:23;;;;;;;8.83;5.70;;;12.70;99.90;;;;;;5034347;28;20213;-74
2023/04/22 02:36:48;;;;;;;9.67;6.20;;;12.60;99.90;;;;;;5035948;28;20196;-75
2023/04/22 02:39:14;;;;;;;10.67;5.90;;;12.60;99.90;;;;;;5038515;28;20704;-75
2023/04/22 02:41:40;;;;;;;11.23;6.23;;;12.60;99.90;;;;;;5044947;28;20210;-75
2023/04/22 02:44:05;;;;;;;8.83;5.63;;;12.50;99.90;;;;;;5034201;28;20287;-75
2023/04/22 02:46:31;;;;;;;10.27;6.10;;;12.50;99.90;;;;;;5032968;28;20212;-75
2023/04/22 02:48:56;;;;;;;9.10;6.50;;;12.50;99.90;;;;;;5039882;28;20532;-75
2023/04/22 02:51:22;;;;;;;11.50;6.50;;;12.50;99.90;;;;;;5034613;28;20180;-74
2023/04/22 02:53:48;;;;;;;8.80;6.27;;;12.40;99.90;;;;;;5033047;28;20207;-75
2023/04/22 02:56:13;;;;;;;9.10;5.87;;;12.40;99.90;;;;;;5044348;28;20203;-76
2023/04/22 02:58:39;;;;;;;8.50;6.30;;;12.40;99.90;;;;;;5046148;28;20212;-75
2023/04/22 03:01:05;;;;;;;9.27;5.93;;;12.40;99.90;;;;;;5050328;28;20407;-74
2023/04/22 03:03:30;;;;;;;9.77;6.10;;;12.30;99.90;;;;;;5033880;28;20176;-75
2023/04/22 03:05:56;;;;;;;10.93;6.67;;;12.20;99.90;;;;;;5038078;28;20334;-74
2023/04/22 03:08:22;;;;;;;10.07;6.60;;;12.30;99.90;;;;;;5035649;28;20244;-74
2023/04/22 03:10:47;;;;;;;8.60;6.63;;;12.20;99.90;;;;;;5034603;28;20619;-74
2023/04/22 03:13:13;;;;;;;10.87;6.50;;;12.10;99.90;;;;;;5032115;28;20227;-76
2023/04/22 03:15:40;;;;;;;9.37;6.40;;;12.00;99.90;;;;;;5037253;28;20194;-75
2023/04/22 03:18:06;;;;;;;13.67;6.20;;;12.00;99.90;;;;;;5039422;28;20231;-76
2023/04/22 03:20:32;;;;;;;9.17;5.87;;;12.10;99.90;;;;;;5042851;28;20238;-75
2023/04/22 03:22:57;;;;;;;11.43;6.73;;;12.10;99.90;;;;;;5041313;28;20632;-75
2023/04/22 03:25:23;;;;;;;11.70;7.17;;;12.10;99.90;;;;;;5032057;28;20207;-75
2023/04/22 03:27:49;;;;;;;9.37;6.43;;;12.10;99.90;;;;;;5033197;28;20677;-75
2023/04/22 03:30:15;;;;;;;7.93;6.30;;;12.00;99.90;;;;;;5030708;28;20204;-75
2023/04/22 03:32:40;;;;;;;8.63;6.47;;;11.90;99.90;;;;;;5047272;28;20239;-74
2023/04/22 03:35:06;;;;;;;9.97;6.13;;;11.90;99.90;;;;;;5047053;28;20295;-75
2023/04/22 03:37:31;;;;;;;9.87;6.80;;;11.90;99.90;;;;;;5060849;28;20319;-73
2023/04/22 03:39:57;;;;;;;7.90;6.10;;;11.80;99.90;;;;;;5051039;28;20206;-74
2023/04/22 03:42:23;;;;;;;8.90;5.90;;;11.90;99.90;;;;;;5036536;28;20662;-73
2023/04/22 03:44:48;;;;;;;9.83;6.60;;;11.80;99.90;;;;;;5042139;28;20210;-74
2023/04/22 03:47:14;;;;;;;9.17;6.60;;;11.80;99.90;;;;;;5039460;28;20719;-75
2023/04/22 03:49:40;;;;;;;8.60;6.30;;;11.80;99.90;;;;;;5039831;28;20204;-75
2023/04/22 03:52:05;;;;;;;8.13;6.10;;;11.80;99.90;;;;;;5038915;28;20192;-74
2023/04/22 03:54:31;;;;;;;10.23;7.20;;;11.70;99.90;;;;;;5046875;28;20222;-73
2023/04/22 03:56:56;;;;;;;10.80;6.53;;;11.70;99.90;;;;;;5041401;28;20290;-75
2023/04/22 03:59:22;;;;;;;11.77;7.85;;;11.80;99.90;;;;;;5039588;28;20408;-73
2023/04/22 04:01:50;;;;;;;10.73;7.10;;;11.80;99.90;;;;;;5046673;28;20207;-75
2023/04/22 04:04:16;;;;;;;8.43;6.60;;;11.70;99.90;;;;;;5034173;28;20303;-75
2023/04/22 04:06:41;;;;;;;7.97;6.50;;;11.80;99.90;;;;;;5045330;28;20300;-75
2023/04/22 04:09:07;;;;;;;10.87;6.73;;;11.70;99.90;;;;;;5042338;28;20216;-72
2023/04/22 04:11:32;;;;;;;13.20;7.23;;;11.70;99.90;;;;;;5049264;28;20200;-74
2023/04/22 04:13:58;;;;;;;9.67;6.67;;;11.70;99.90;;;;;;5033463;28;20216;-74
2023/04/22 04:16:24;;;;;;;8.57;6.60;;;11.70;99.90;;;;;;5035193;28;20226;-74
2023/04/22 04:18:50;;;;;;;10.17;6.80;;;11.60;99.90;;;;;;5042260;28;20267;-74
2023/04/22 04:21:16;;;;;;;10.27;6.53;;;11.70;99.90;;;;;;5040657;28;20219;-74
2023/04/22 04:23:42;;;;;;;9.23;7.17;;;11.70;99.90;;;;;;5037797;28;20208;-75
2023/04/22 04:26:07;;;;;;;9.60;6.83;;;11.70;99.90;;;;;;5039568;28;20601;-73
2023/04/22 04:28:33;;;;;;;12.33;7.13;;;11.80;99.90;;;;;;5035023;28;20641;-74
2023/04/22 04:31:01;;;;;;;10.63;7.20;;;11.70;99.90;;;;;;5051274;28;20172;-75
2023/04/22 04:33:28;;;;;;;8.73;6.67;;;11.70;99.90;;;;;;5041863;28;20235;-73
2023/04/22 04:35:53;;;;;;;12.97;6.80;;;12.00;99.90;;;;;;5049842;28;20280;-73
2023/04/22 04:38:19;;;;;;;8.93;6.77;;;12.70;99.90;;;;;;5048097;28;20287;-75
2023/04/22 04:40:44;;;;;;;10.47;6.73;;;13.20;99.90;;;;;;5050860;28;20695;-74
2023/04/22 04:43:11;;;;;;;11.30;6.70;;;13.50;99.90;;;;;;5032410;28;20180;-74
2023/04/22 04:45:38;;;;;;;9.95;6.43;;;13.60;99.90;;;;;;5035052;28;20172;-75
2023/04/22 04:48:05;;;;;;;12.90;7.30;;;13.60;99.90;;;;;;5044792;28;20215;-75
2023/04/22 04:50:31;;;;;;;12.02;7.40;;;13.80;99.90;;;;;;5037731;28;20223;-73
2023/04/22 04:52:57;;;;;;;11.48;7.60;;;14.00;99.90;;;;;;5038737;28;20204;-75
2023/04/22 04:55:23;;;;;;;8.90;6.60;;;14.40;99.90;;;;;;5041431;28;20211;-74
2023/04/22 04:57:49;;;;;;;11.15;6.47;;;14.40;99.90;;;;;;5038228;28;20720;-76
2023/04/22 05:00:14;;;;;;;8.20;6.82;;;15.30;99.90;;;;;;5031221;28;20709;-75
2023/04/22 05:02:40;;;;;;;12.15;7.00;;;15.50;99.90;;;;;;5034680;28;20215;-75
2023/04/22 05:05:07;;;;;;;11.07;7.05;;;16.00;99.90;;;;;;5050453;28;20200;-75
2023/04/22 05:07:32;;;;;;;10.40;6.97;;;15.70;99.90;;;;;;5054604;28;20318;-73
2023/04/22 05:09:59;;;;;;;10.43;6.75;;;16.10;99.90;;;;;;5048917;28;20175;-74
2023/04/22 05:12:25;;;;;;;9.45;6.40;;;16.00;99.90;;;;;;5047786;28;20168;-75
2023/04/22 05:14:52;;;;;;;10.95;6.97;;;16.00;99.90;;;;;;5039446;28;20331;-75
2023/04/22 05:17:18;;;;;;;10.43;7.40;;;16.30;99.90;;;;;;5051000;28;20231;-72
2023/04/22 05:19:44;;;;;;;14.77;7.28;;;16.30;99.90;;;;;;5063148;28;20216;-76
2023/04/22 05:22:10;;;;;;;10.52;6.72;;;16.60;99.90;;;;;;5047262;28;20169;-75
2023/04/22 05:24:36;;;;;;;9.38;6.68;;;16.50;99.90;;;;;;5054913;28;20172;-74
2023/04/22 05:27:02;;;;;;;10.50;7.65;;;16.80;99.90;;;;;;5045140;28;20212;-76
2023/04/22 05:29:28;;;;;;;10.55;7.32;;;17.20;99.90;;;;;;5043064;28;20597;-75
2023/04/22 05:31:53;;;;;;;11.43;7.38;;;17.00;99.90;;;;;;5041266;28;20203;-76
2023/04/22 05:34:19;;;;;;;10.45;7.45;;;17.20;99.90;;;;;;5042514;28;20605;-75
2023/04/22 05:36:44;;;;;;;10.95;6.90;;;17.60;99.90;;;;;;5045393;28;20201;-75
2023/04/22 05:39:11;;;;;;;9.13;7.03;;;18.00;99.90;;;;;;5029574;28;20610;-75
2023/04/22 05:41:37;;;;;;;8.85;6.80;;;17.70;99.90;;;;;;5042194;28;20342;-75
2023/04/22 05:44:03;;;;;;;10.38;7.60;;;18.10;99.90;;;;;;5039419;28;20257;-75
2023/04/22 05:46:28;;;;;;;9.95;7.57;;;18.50;99.90;;;;;;5044376;28;20922;-74
2023/04/22 05:48:55;;;;;;;10.40;7.07;;;18.60;99.90;;;;;;5037326;28;20178;-76
2023/04/22 05:51:22;;;;;;;10.65;7.38;;;18.50;99.90;;;;;;5033561;28;20554;-75
2023/04/22 05:53:48;;;;;;;9.30;7.13;;;18.60;99.90;;;;;;5033332;28;20304;-76
2023/04/22 05:56:14;;;;;;;10.82;8.05;;;19.00;99.90;;;;;;5039473;28;20303;-75
2023/04/22 05:58:39;;;;;;;10.10;7.88;;;18.90;99.90;;;;;;5039245;28;20210;-75
2023/04/22 06:01:05;;;;;;;11.23;7.28;;;19.60;99.90;;;;;;5035865;28;20246;-76
2023/04/22 06:03:30;;;;;;;9.65;7.03;;;19.70;99.90;;;;;;5039271;28;20184;-75
2023/04/22 06:05:56;;;;;;;11.32;7.35;;;19.70;99.90;;;;;;5043697;28;20206;-76
2023/04/22 06:08:22;;;;;;;10.25;7.68;;;19.70;99.90;;;;;;5047082;28;20215;-75
2023/04/22 06:10:47;;;;;;;8.88;7.10;;;19.10;99.90;;;;;;5038889;28;20243;-76
2023/04/22 06:13:13;;;;;;;11.45;8.52;;;19.10;99.90;;;;;;5045341;28;20249;-76
2023/04/22 06:15:39;;;;;;;10.60;8.07;;;20.10;99.90;;;;;;5042681;28;20234;-76
2023/04/22 06:18:04;;;;;;;10.07;7.78;;;20.10;99.90;;;;;;5033212;28;20208;-74
2023/04/22 06:20:34;;;;;;;10.57;8.18;;;18.90;99.90;;;;;;5046993;28;20235;-74
2023/04/22 06:23:00;;;;;;;14.15;10.77;;;19.10;99.90;;;;;;5030764;28;20208;-75
2023/04/22 06:25:26;;;;;;;9.35;7.28;;;20.10;99.90;;;;;;5031910;28;20215;-75
2023/04/22 06:27:52;;;;;;;9.88;7.70;;;20.00;99.90;;;;;;5032053;28;20201;-76
2023/04/22 06:30:17;;;;;;;11.43;7.25;;;21.20;99.90;;;;;;5043260;28;20170;-76
2023/04/22 06:32:43;;;;;;;8.60;7.70;;;21.00;98.60;;;;;;5040835;28;20255;-76
2023/04/22 06:35:09;;;;;;;10.73;7.57;;;20.40;99.50;;;;;;5042920;28;20224;-76
2023/04/22 06:37:35;;;;;;;12.20;7.40;;;20.70;99.10;;;;;;5049249;28;20735;-75
2023/04/22 06:40:01;;;;;;;12.10;8.07;;;20.60;98.50;;;;;;5051932;28;20224;-74
2023/04/22 06:42:26;;;;;;;9.65;7.85;;;20.30;98.50;;;;;;5049706;28;20205;-75
2023/04/22 06:44:52;;;;;;;11.07;8.10;;;20.20;99.10;;;;;;5043055;28;20295;-76
2023/04/22 06:47:18;;;;;;;7.93;7.10;;;21.40;98.20;;;;;;5038857;28;20220;-73
2023/04/22 06:49:44;;;;;;;11.57;7.45;;;21.20;98.00;;;;;;5045936;28;20769;-76
2023/04/22 06:52:10;;;;;;;10.65;7.50;;;21.00;97.60;;;;;;5047826;28;20184;-76
2023/04/22 06:54:37;;;;;;;10.73;7.95;;;21.10;97.70;;;;;;5041547;28;20199;-75
2023/04/22 06:57:02;;;;;;;18.08;13.52;;;21.30;97.20;;;;;;5036107;28;20767;-77
2023/04/22 06:59:28;;;;;;;11.98;7.82;;;21.60;97.30;;;;;;5042322;28;20289;-74
2023/04/22 07:01:54;;;;;;;10.60;7.78;;;21.60;96.10;;;;;;5029827;28;20679;-76
2023/04/22 07:04:19;;;;;;;11.57;7.78;;;22.10;96.50;;;;;;5043194;28;20208;-75
2023/04/22 07:06:45;;;;;;;8.75;7.03;;;21.80;95.50;;;;;;5049924;28;20218;-76
2023/04/22 07:09:11;;;;;;;9.52;7.60;;;21.50;95.60;;;;;;5044397;28;20257;-77
2023/04/22 07:11:37;;;;;;;10.65;7.32;;;22.00;95.30;;;;;;5033949;28;20258;-76
2023/04/22 07:14:02;;;;;;;9.93;7.53;;;21.10;95.20;;;;;;5039246;28;20935;-75
2023/04/22 07:16:28;;;;;;;12.25;7.05;;;21.00;95.80;;;;;;5048008;28;20230;-76
2023/04/22 07:18:54;;;;;;;10.43;7.50;;;20.70;96.50;;;;;;5037130;28;20175;-77
2023/04/22 07:21:19;;;;;;;10.27;7.50;;;21.30;96.30;;;;;;5043700;28;20266;-76
2023/04/22 07:23:45;;;;;;;9.95;8.20;;;22.60;95.60;;;;;;5041069;28;20219;-76
2023/04/22 07:26:11;;;;;;;9.00;7.28;;;23.10;94.20;;;;;;5040400;28;20602;-77
2023/04/22 07:28:37;;;;;;;11.30;8.23;;;23.10;93.30;;;;;;5043726;28;20651;-77
2023/04/22 07:31:02;;;;;;;8.05;7.25;;;22.80;93.70;;;;;;5052213;28;20190;-76
2023/04/22 07:33:28;;;;;;;8.55;7.45;;;22.30;93.80;;;;;;5045192;28;20693;-76
2023/04/22 07:35:53;;;;;;;9.20;7.25;;;22.60;93.90;;;;;;5051827;28;20233;-76
2023/04/22 07:38:19;;;;;;;9.77;7.30;;;23.40;94.00;;;;;;5042497;28;20210;-74
2023/04/22 07:40:45;;;;;;;10.55;7.40;;;24.70;92.40;;;;;;5058849;28;20216;-75
2023/04/22 07:43:11;;;;;;;10.38;7.38;;;24.80;91.90;;;;;;5061197;28;20256;-75
2023/04/22 07:45:36;;;;;;;12.52;8.45;;;25.10;90.70;;;;;;5047285;28;20169;-75
2023/04/22 07:48:03;;;;;;;11.63;7.75;;;24.30;91.00;;;;;;5040284;28;20221;-75
2023/04/22 07:50:28;;;;;;;10.07;7.78;;;23.70;91.60;;;;;;5051464;28;20200;-74
2023/04/22 07:52:54;;;;;;;9.93;8.00;;;22.90;92.60;;;;;;5045157;28;20196;-74
2023/04/22 07:55:20;;;;;;;9.90;7.90;;;23.40;92.70;;;;;;5042461;28;20203;-74
2023/04/22 07:57:45;;;;;;;10.88;6.97;;;24.10;92.90;;;;;;5048189;28;20237;-75
2023/04/22 08:00:12;;;;;;;11.38;7.32;;;24.20;92.30;;;;;;5048330;28;20206;-74
2023/04/22 08:02:37;;;;;;;9.65;7.88;;;24.40;91.80;;;;;;5047872;28;20235;-74
2023/04/22 08:05:03;;;;;;;11.43;7.25;;;24.60;91.50;;;;;;5034846;28;20224;-74
2023/04/22 08:07:29;;;;;;;9.48;7.45;;;24.70;91.80;;;;;;5044354;28;20222;-80
2023/04/22 08:09:55;;;;;;;11.27;7.53;;;24.60;91.00;;;;;;5048449;28;20174;-74
2023/04/22 08:12:21;;;;;;;9.55;7.70;;;24.40;91.50;;;;;;5040093;28;20164;-73
2023/04/22 08:14:47;;;;;;;11.45;7.20;;;24.60;91.00;;;;;;5040916;28;20224;-76
2023/04/22 08:17:12;;;;;;;9.05;7.90;;;22.80;91.10;;;;;;5037255;28;20208;-76
2023/04/22 08:19:38;;;;;;;9.57;7.15;;;21.70;92.50;;;;;;5032148;28;20587;-75
2023/04/22 08:22:03;;;;;;;7.60;6.43;;;21.50;93.10;;;;;;5051773;28;20198;-75
2023/04/22 08:24:29;;;;;;;10.63;7.70;;;21.30;93.40;;;;;;5046804;28;20172;-76
2023/04/22 08:26:55;;;;;;;9.57;7.03;;;21.40;94.10;;;;;;5049789;28;20624;-76
2023/04/22 08:29:21;;;;;;;12.32;7.72;;;21.40;93.80;;;;;;5033270;28;20223;-75
2023/04/22 08:31:46;;;;;;;11.85;6.65;;;21.30;94.00;;;;;;5054578;28;20686;-74
2023/04/22 08:34:12;;;;;;;9.40;7.03;;;21.70;94.00;;;;;;5037800;28;20410;-75
2023/04/22 08:36:37;;;;;;;9.35;6.80;;;21.90;93.70;;;;;;5041226;28;20271;-74
2023/04/22 08:39:03;;;;;;;9.60;6.30;;;21.20;93.50;;;;;;5037990;28;20657;-74
2023/04/22 08:41:32;;;;;;;11.05;7.15;;;21.30;94.10;;;;;;5043286;28;20689;-75
2023/04/22 08:43:59;;;;;;;9.50;7.13;;;21.00;94.00;;;;;;5047647;28;20204;-75
2023/04/22 08:46:25;;;;;;;10.50;6.13;;;21.70;94.10;;;;;;5040533;28;20227;-74
2023/04/22 08:48:52;;;;;;;16.40;9.63;;;21.50;93.60;;;;;;5047746;28;20169;-75
2023/04/22 08:51:18;;;;;;;19.30;16.58;;;21.90;94.00;;;;;;5044392;28;20200;-75
2023/04/22 08:53:44;;;;;;;11.77;7.43;;;21.40;94.40;;;;;;5038428;28;20842;-76
2023/04/22 08:56:13;;;;;;;9.63;6.63;;;21.20;94.30;;;;;;5048086;28;20211;-75
2023/04/22 08:58:40;;;;;;;11.55;6.03;;;21.30;95.10;;;;;;5035741;28;20208;-76
2023/04/22 09:01:07;;;;;;;7.28;5.88;;;21.40;95.20;;;;;;5060957;28;20190;-76
2023/04/22 09:03:38;;;;;;;10.70;6.18;;;21.90;95.00;;;;;;5046446;28;20172;-75
2023/04/22 09:06:04;;;;;;;7.85;5.97;;;21.90;94.50;;;;;;5035961;28;20205;-75
2023/04/22 09:08:34;;;;;;;11.52;6.63;;;21.40;94.60;;;;;;5041234;28;20223;-75
2023/04/22 09:10:59;;;;;;;17.17;8.93;;;20.90;95.80;;;;;;5063449;28;20203;-75
2023/04/22 09:13:25;;;;;;;11.43;6.50;;;21.30;96.20;;;;;;5057798;28;20250;-75
2023/04/22 09:15:51;;;;;;;12.13;6.85;;;21.10;96.00;;;;;;5060542;28;20192;-75
2023/04/22 09:18:18;;;;;;;11.82;6.20;;;21.30;96.10;;;;;;5055499;28;20180;-76
2023/04/22 09:20:46;;;;;;;11.90;5.97;;;21.10;96.30;;;;;;5051697;28;20208;-76
2023/04/22 09:23:12;;;;;;;12.35;6.72;;;21.50;96.00;;;;;;5051140;28;20210;-76
2023/04/22 09:25:39;;;;;;;8.70;6.03;;;21.90;95.80;;;;;;5034103;28;20212;-74
2023/04/22 09:28:05;;;;;;;8.15;5.70;;;21.90;95.30;;;;;;5031671;28;20341;-75
2023/04/22 09:30:36;;;;;;;10.50;6.20;;;21.90;95.30;;;;;;5037105;28;20214;-76
2023/04/22 09:33:04;;;;;;;6.93;5.28;;;21.50;95.60;;;;;;5036151;28;20258;-75
2023/04/22 09:35:34;;;;;;;13.20;5.65;;;21.20;96.00;;;;;;5044050;28;20208;-76
2023/04/22 09:38:02;;;;;;;10.35;6.10;;;20.90;96.00;;;;;;5035811;28;20205;-76
2023/04/22 09:40:28;;;;;;;9.27;5.88;;;21.00;96.50;;;;;;5052894;28;20208;-75
2023/04/22 09:42:57;;;;;;;7.70;5.72;;;21.20;96.70;;;;;;5042190;28;20555;-75
2023/04/22 09:45:33;;;;;;;9.52;5.70;;;21.20;96.70;;;;;;5050876;28;20168;-74
2023/04/22 09:48:07;;;;;;;8.23;5.80;;;21.50;96.40;;;;;;5040842;28;20771;-75
2023/04/22 09:50:33;;;;;;;9.88;5.70;;;21.50;96.50;;;;;;5038761;28;20203;-75
2023/04/22 09:53:01;;;;;;;10.73;6.38;;;21.70;96.10;;;;;;5047748;28;20221;-75
2023/04/22 09:55:29;;;;;;;10.88;5.40;;;21.20;96.40;;;;;;5043227;28;20223;-74
2023/04/22 09:57:57;;;;;;;11.32;5.72;;;21.30;96.80;;;;;;5053411;28;20200;-75
2023/04/22 10:00:29;;;;;;;11.98;5.47;;;21.40;96.40;;;;;;5047105;28;20165;-74
2023/04/22 10:02:55;;;;;;;11.63;5.88;;;21.40;96.00;;;;;;5051384;28;20218;-75
2023/04/22 10:05:21;;;;;;;7.57;5.13;;;21.60;96.10;;;;;;5045961;28;20227;-74
2023/04/22 10:07:47;;;;;;;8.07;5.35;;;21.50;96.50;;;;;;5055702;28;20227;-74
2023/04/22 10:10:13;;;;;;;8.15;5.32;;;21.30;96.60;;;;;;5048941;28;20258;-75
2023/04/22 10:12:38;;;;;;;10.63;5.55;;;21.50;96.90;;;;;;5039083;28;20172;-76
2023/04/22 10:15:05;;;;;;;6.57;5.18;;;21.70;96.50;;;;;;5041455;28;20203;-75
2023/04/22 10:17:34;;;;;;;10.02;5.35;;;21.70;95.50;;;;;;5042027;28;20236;-74
2023/04/22 10:20:03;;;;;;;10.60;5.30;;;21.40;94.60;;;;;;5046607;28;20239;-75
2023/04/22 10:22:31;;;;;;;9.63;5.70;;;21.40;95.30;;;;;;5044368;28;20313;-74
2023/04/22 10:24:57;;;;;;;7.50;5.60;;;21.60;95.90;;;;;;5040503;28;20226;-74
2023/04/22 10:27:23;;;;;;;8.52;4.88;;;21.60;95.40;;;;;;5061919;28;20418;-73
2023/04/22 10:29:49;;;;;;;9.02;5.95;;;21.50;95.60;;;;;;5056575;28;20238;-76
2023/04/22 10:32:17;;;;;;;8.90;5.88;;;21.70;94.60;;;;;;5059733;28;20203;-75
2023/04/22 10:34:47;;;;;;;7.78;4.97;;;21.70;94.40;;;;;;5061170;28;20679;-73
2023/04/22 10:37:16;;;;;;;9.63;5.50;;;22.00;94.30;;;;;;5057799;28;20813;-75
2023/04/22 10:40:02;;;;;;;7.30;5.65;;;21.90;94.70;;;;;;5053447;28;20191;-74
2023/04/22 10:42:28;;;;;;;6.82;5.10;;;21.70;95.10;;;;;;5042547;28;20210;-75
2023/04/22 10:45:00;;;;;;;7.82;5.20;;;21.50;93.60;;;;;;5037699;28;20212;-75
2023/04/22 10:47:37;;;;;;;6.78;4.20;;;21.80;93.30;;;;;;5046852;28;20258;-77
2023/04/22 10:50:14;;;;;;;8.55;4.78;;;21.80;92.70;;;;;;5040616;28;20232;-76
2023/04/22 10:52:42;;;;;;;8.60;4.75;;;21.60;92.40;;;;;;5057738;28;20203;-76
2023/04/22 10:55:07;;;;;;;9.15;5.55;;;21.50;93.10;;;;;;5052883;28;20224;-75
2023/04/22 10:57:44;;;;;;;6.28;4.80;;;21.40;93.10;;;;;;5050811;28;20199;-76
2023/04/22 11:00:24;;;;;;;6.03;4.53;;;21.40;93.70;;;;;;5041561;28;20210;-75
2023/04/22 11:03:09;;;;;;;8.40;4.78;;;21.30;91.40;;;;;;5053160;28;20210;-74
2023/04/22 11:05:35;;;;;;;9.27;4.75;;;21.50;91.40;;;;;;5038769;28;20208;-77
2023/04/22 11:08:03;;;;;;;6.60;4.30;;;21.40;92.00;;;;;;5033685;28;20726;-76
2023/04/22 11:10:42;;;;;;;8.35;5.18;;;21.40;91.80;;;;;;5039333;28;20257;-76
2023/04/22 11:13:17;;;;;;;9.20;4.82;;;21.60;91.70;;;;;;5034561;28;20541;-76
2023/04/22 11:15:45;;;;;;;7.43;4.60;;;21.50;92.60;;;;;;5041812;28;20282;-76
2023/04/22 11:18:20;;;;;;;10.20;5.60;;;21.70;92.90;;;;;;5038322;28;20217;-76
2023/04/22 11:20:48;;;;;;;7.72;5.43;;;21.70;93.30;;;;;;5040489;28;20207;-76
2023/04/22 11:23:18;;;;;;;6.50;5.38;;;21.60;93.10;;;;;;5040369;28;20257;-75
2023/04/22 11:25:44;;;;;;;8.98;4.78;;;21.60;93.00;;;;;;5030028;28;20218;-76
2023/04/22 11:28:09;;;;;;;7.95;5.68;;;21.50;93.30;;;;;;5053727;28;20203;-76
2023/04/22 11:30:35;;;;;;;8.90;5.25;;;21.40;93.50;;;;;;5043617;28;20573;-76
2023/04/22 11:33:01;;;;;;;7.70;4.85;;;21.50;93.50;;;;;;5055922;28;20286;-76
2023/04/22 11:35:30;;;;;;;10.60;6.50;;;21.60;93.20;;;;;;5036446;28;20204;-77
2023/04/22 11:38:01;;;;;;;8.75;5.22;;;21.60;93.10;;;;;;5050715;28;20222;-76
2023/04/22 11:40:40;;;;;;;6.95;5.03;;;21.80;93.40;;;;;;5040161;28;20204;-75
2023/04/22 11:43:08;;;;;;;8.18;5.20;;;21.60;93.20;;;;;;5039713;28;20200;-76
2023/04/22 11:45:35;;;;;;;8.30;5.15;;;21.70;92.60;;;;;;5041682;28;20602;-76
2023/04/22 11:48:03;;;;;;;8.00;5.30;;;21.70;92.40;;;;;;5031274;28;20212;-75
2023/04/22 11:50:32;;;;;;;7.05;5.10;;;21.90;92.70;;;;;;5048346;28;20203;-75
2023/04/22 11:53:00;;;;;;;9.43;5.63;;;22.00;92.40;;;;;;5046288;28;20346;-76
2023/04/22 11:55:31;;;;;;;9.40;5.28;;;22.00;92.00;;;;;;5036489;28;20216;-75
2023/04/22 11:58:09;;;;;;;6.68;4.57;;;21.90;91.40;;;;;;5029375;28;20581;-76
2023/04/22 12:00:36;;;;;;;6.97;4.70;;;21.90;91.60;;;;;;5034807;28;20172;-76
2023/04/22 12:03:37;;;;;;;6.63;4.90;;;22.00;91.00;;;;;;5050670;28;20469;-75
2023/04/22 12:06:03;;;;;;;9.10;5.18;;;22.00;91.10;;;;;;5002153;28;20211;-75
2023/04/22 12:08:35;;;;;;;6.63;4.82;;;22.20;91.20;;;;;;5029626;28;20262;-75
2023/04/22 12:11:04;;;;;;;7.40;4.53;;;21.90;90.50;;;;;;5060275;28;20212;-76
2023/04/22 12:13:37;;;;;;;10.05;5.00;;;22.10;91.00;;;;;;5039978;28;20257;-75
2023/04/22 12:16:08;;;;;;;7.13;5.22;;;22.30;90.50;;;;;;5043570;28;20560;-75
2023/04/22 12:18:36;;;;;;;7.75;4.55;;;22.20;89.80;;;;;;5040821;28;20643;-74
2023/04/22 12:21:13;;;;;;;7.70;4.70;;;22.00;89.80;;;;;;5056256;28;20208;-75
2023/04/22 12:23:52;;;;;;;6.65;4.82;;;22.10;90.00;;;;;;5051450;28;20282;-74
2023/04/22 12:26:20;;;;;;;6.45;4.05;;;22.00;90.10;;;;;;5049541;28;20590;-74
2023/04/22 12:28:46;;;;;;;6.32;4.85;;;22.00;89.20;;;;;;5042622;28;20215;-77
2023/04/22 12:31:15;;;;;;;7.28;4.20;;;21.80;89.20;;;;;;5034264;28;20588;-74
2023/04/22 12:33:41;;;;;;;7.35;5.05;;;21.80;89.30;;;;;;5033254;28;20200;-75
2023/04/22 12:36:08;;;;;;;7.28;4.40;;;21.80;89.50;;;;;;5037817;28;20566;-75
2023/04/22 12:38:34;;;;;;;7.07;4.55;;;21.90;88.90;;;;;;5047547;28;20203;-76
2023/04/22 12:41:01;;;;;;;9.75;4.47;;;21.90;88.90;;;;;;5033168;28;20714;-76